createdAt,value
2018-07-31T00:02:00.260Z,17.47
2018-07-31T00:04:29.066Z,17.60
2018-07-31T00:06:58.034Z,16.80
2018-07-31T00:09:26.868Z,16.73
2018-07-31T00:11:55.704Z,17.43
2018-07-31T00:14:24.524Z,16.13
2018-07-31T00:16:53.723Z,17.10
2018-07-31T00:19:22.599Z,17.43
2018-07-31T00:21:51.456Z,17.07
2018-07-31T00:24:20.283Z,16.00
2018-07-31T00:26:49.065Z,16.47
2018-07-31T00:29:17.929Z,17.27
2018-07-31T00:31:46.712Z,19.40
2018-07-31T00:34:15.504Z,17.13
2018-07-31T00:36:44.359Z,17.90
2018-07-31T00:39:13.265Z,17.67
2018-07-31T00:41:42.674Z,18.27
2018-07-31T00:44:11.776Z,18.07
2018-07-31T00:46:40.607Z,18.17
2018-07-31T00:49:09.377Z,19.20
2018-07-31T00:51:38.352Z,18.67
2018-07-31T00:54:07.154Z,18.23
2018-07-31T00:56:35.940Z,19.23
2018-07-31T00:59:04.792Z,19.60
2018-07-31T01:01:33.596Z,20.63
2018-07-31T01:04:02.383Z,18.87
2018-07-31T01:06:37.198Z,16.90
2018-07-31T01:09:09.776Z,18.87
2018-07-31T01:11:38.708Z,18.73
2018-07-31T01:14:08.364Z,17.87
2018-07-31T01:16:38.388Z,17.93
2018-07-31T01:19:07.488Z,17.50
2018-07-31T01:21:36.456Z,16.97
2018-07-31T01:24:05.419Z,15.10
2018-07-31T01:26:34.243Z,15.83
2018-07-31T01:29:03.144Z,14.87
2018-07-31T01:31:32.008Z,15.27
2018-07-31T01:34:00.893Z,15.57
2018-07-31T01:36:29.681Z,14.53
2018-07-31T01:38:58.492Z,14.90
2018-07-31T01:41:27.333Z,14.73
2018-07-31T01:43:56.460Z,14.93
2018-07-31T01:46:25.248Z,14.40
2018-07-31T01:48:54.179Z,14.40
2018-07-31T01:51:22.992Z,12.97
2018-07-31T01:53:51.759Z,11.87
2018-07-31T01:56:20.794Z,11.27
2018-07-31T01:58:49.675Z,10.97
2018-07-31T02:01:18.474Z,10.67
2018-07-31T02:03:47.308Z,10.97
2018-07-31T02:06:16.189Z,10.87
2018-07-31T02:08:44.938Z,10.93
2018-07-31T02:11:13.740Z,12.60
2018-07-31T02:13:42.558Z,12.80
2018-07-31T02:16:11.325Z,12.47
2018-07-31T02:18:40.093Z,11.67
2018-07-31T02:21:08.901Z,11.80
2018-07-31T02:23:37.736Z,12.07
2018-07-31T02:26:07.872Z,12.70
2018-07-31T02:28:36.688Z,11.20
2018-07-31T02:31:05.501Z,11.40
2018-07-31T02:33:34.350Z,11.63
2018-07-31T02:36:03.265Z,10.90
2018-07-31T02:38:32.069Z,10.83
2018-07-31T02:41:00.872Z,10.70
2018-07-31T02:43:29.678Z,10.13
2018-07-31T02:45:58.500Z,11.50
2018-07-31T02:48:27.340Z,10.57
2018-07-31T02:50:56.144Z,10.97
2018-07-31T02:53:24.945Z,10.23
2018-07-31T02:55:53.783Z,10.27
2018-07-31T02:58:22.635Z,11.43
2018-07-31T03:00:51.430Z,11.77
2018-07-31T03:03:21.657Z,10.80
2018-07-31T03:05:50.457Z,10.80
2018-07-31T03:08:19.293Z,10.07
2018-07-31T03:10:48.140Z,10.20
2018-07-31T03:13:16.984Z,10.70
2018-07-31T03:15:45.778Z,10.72
2018-07-31T03:18:14.557Z,9.87
2018-07-31T03:20:43.461Z,10.10
2018-07-31T03:23:12.323Z,9.40
2018-07-31T03:25:41.152Z,9.70
2018-07-31T03:28:10.059Z,10.40
2018-07-31T03:30:38.894Z,11.77
2018-07-31T03:33:07.711Z,11.93
2018-07-31T03:35:36.579Z,12.63
2018-07-31T03:38:05.421Z,13.33
2018-07-31T03:40:34.317Z,11.50
2018-07-31T03:43:03.127Z,12.53
2018-07-31T03:45:31.920Z,12.07
2018-07-31T03:48:00.752Z,11.80
2018-07-31T03:50:29.630Z,11.33
2018-07-31T03:52:58.479Z,12.10
2018-07-31T03:55:27.330Z,11.60
2018-07-31T03:57:56.233Z,11.63
2018-07-31T04:00:25.085Z,11.13
2018-07-31T04:02:54.031Z,10.90
2018-07-31T04:05:22.888Z,12.10
2018-07-31T04:07:51.700Z,12.43
2018-07-31T04:10:21.743Z,11.97
2018-07-31T04:12:50.544Z,12.23
2018-07-31T04:15:19.307Z,11.87
2018-07-31T04:17:53.716Z,11.90
2018-07-31T04:20:22.543Z,13.17
2018-07-31T04:22:51.468Z,12.87
2018-07-31T04:25:20.279Z,12.10
2018-07-31T04:27:49.154Z,12.97
2018-07-31T04:30:17.940Z,13.37
2018-07-31T04:32:46.731Z,14.03
2018-07-31T04:35:15.611Z,14.97
2018-07-31T04:37:44.380Z,14.87
2018-07-31T04:40:13.161Z,15.93
2018-07-31T04:42:42.136Z,15.73
2018-07-31T04:45:11.845Z,16.57
2018-07-31T04:47:40.946Z,16.03
2018-07-31T04:50:11.988Z,15.60
2018-07-31T04:52:40.832Z,16.23
2018-07-31T04:55:09.598Z,16.23
2018-07-31T04:57:38.402Z,15.90
2018-07-31T05:00:08.705Z,14.67
2018-07-31T05:02:38.333Z,16.53
2018-07-31T05:05:07.389Z,15.33
2018-07-31T05:07:38.684Z,17.53
2018-07-31T05:10:11.374Z,14.57
2018-07-31T05:12:40.805Z,15.10
2018-07-31T05:15:09.800Z,13.20
2018-07-31T05:17:39.984Z,12.37
2018-07-31T05:20:10.259Z,12.80
2018-07-31T05:22:39.806Z,11.93
2018-07-31T05:25:08.766Z,11.83
2018-07-31T05:27:37.580Z,11.80
2018-07-31T05:30:08.275Z,11.97
2018-07-31T05:32:37.153Z,11.27
2018-07-31T05:35:06.852Z,12.07
2018-07-31T05:37:35.963Z,16.70
2018-07-31T05:40:05.176Z,16.83
2018-07-31T05:42:33.930Z,17.50
2018-07-31T05:45:02.756Z,17.27
2018-07-31T05:47:31.603Z,17.23
2018-07-31T05:50:00.404Z,16.20
2018-07-31T05:52:29.197Z,17.87
2018-07-31T05:54:57.970Z,17.10
2018-07-31T05:57:26.835Z,16.03
2018-07-31T05:59:55.764Z,15.50
2018-07-31T06:02:24.577Z,16.90
2018-07-31T06:04:53.453Z,17.33
2018-07-31T06:07:22.467Z,15.07
2018-07-31T06:09:51.316Z,10.03
2018-07-31T06:12:20.132Z,7.70
2018-07-31T06:14:48.908Z,8.10
2018-07-31T06:17:17.681Z,7.50
2018-07-31T06:19:48.161Z,7.37
2018-07-31T06:22:17.103Z,7.40
2018-07-31T06:24:45.942Z,7.73
2018-07-31T06:27:14.784Z,7.53
2018-07-31T06:29:43.730Z,7.30
2018-07-31T06:32:12.860Z,6.90
2018-07-31T06:34:41.614Z,7.00
2018-07-31T06:37:10.478Z,6.73
2018-07-31T06:39:39.359Z,7.87
2018-07-31T06:42:08.294Z,8.30
2018-07-31T06:44:37.100Z,8.13
2018-07-31T06:47:05.978Z,6.77
2018-07-31T06:49:34.942Z,7.40
2018-07-31T06:52:03.903Z,6.90
2018-07-31T06:54:32.757Z,6.60
2018-07-31T06:57:01.597Z,7.30
2018-07-31T06:59:31.673Z,8.50
2018-07-31T07:02:00.569Z,7.90
2018-07-31T07:04:29.322Z,10.43
2018-07-31T07:06:58.185Z,10.63
2018-07-31T07:09:26.964Z,10.97
2018-07-31T07:11:55.760Z,11.57
2018-07-31T07:14:24.597Z,10.43
2018-07-31T07:16:53.415Z,8.27
2018-07-31T07:19:22.183Z,9.80
2018-07-31T07:21:51.222Z,9.80
2018-07-31T07:24:20.064Z,9.90
2018-07-31T07:26:48.825Z,7.80
2018-07-31T07:29:17.753Z,7.33
2018-07-31T07:31:46.539Z,6.43
2018-07-31T07:34:15.342Z,7.07
2018-07-31T07:36:44.167Z,7.70
2018-07-31T07:39:13.624Z,7.40
2018-07-31T07:41:42.527Z,6.83
2018-07-31T07:44:12.011Z,6.93
2018-07-31T07:46:40.808Z,7.80
2018-07-31T07:49:09.801Z,8.70
2018-07-31T07:51:38.734Z,9.50
2018-07-31T07:54:07.906Z,9.87
2018-07-31T07:56:36.638Z,9.77
2018-07-31T07:59:05.477Z,8.67
2018-07-31T08:01:34.264Z,8.10
2018-07-31T08:04:03.241Z,7.97
2018-07-31T08:06:32.109Z,7.73
2018-07-31T08:09:00.896Z,7.50
2018-07-31T08:11:29.676Z,8.30
2018-07-31T08:13:58.508Z,7.97
2018-07-31T08:16:27.416Z,8.57
2018-07-31T08:18:56.237Z,8.67
2018-07-31T08:21:26.547Z,8.17
2018-07-31T08:23:56.676Z,7.93
2018-07-31T08:26:25.521Z,17.57
2018-07-31T08:28:54.366Z,8.83
2018-07-31T08:33:04.547Z,12.97
2018-07-31T08:35:33.363Z,12.27
2018-07-31T08:38:02.156Z,14.87
2018-07-31T08:40:31.090Z,9.00
2018-07-31T08:42:59.984Z,10.87
2018-07-31T08:45:28.826Z,9.80
2018-07-31T08:47:57.758Z,15.07
2018-07-31T08:50:26.539Z,12.03
2018-07-31T08:52:55.315Z,14.70
2018-07-31T08:55:24.184Z,18.93
2018-07-31T08:57:52.956Z,12.17
2018-07-31T09:00:21.760Z,8.40
2018-07-31T09:02:50.664Z,7.20
2018-07-31T09:18:20.272Z,8.23
2018-07-31T09:20:49.099Z,8.00
2018-07-31T09:23:17.898Z,8.20
2018-07-31T09:25:47.774Z,7.83
2018-07-31T09:28:18.768Z,8.67
2018-07-31T09:30:52.766Z,7.57
2018-07-31T09:33:22.986Z,7.47
2018-07-31T09:35:51.804Z,7.70
2018-07-31T09:38:20.736Z,7.47
2018-07-31T09:40:49.611Z,7.23
2018-07-31T09:43:18.491Z,7.50
2018-07-31T09:45:47.304Z,7.97
2018-07-31T09:48:16.209Z,7.40
2018-07-31T09:50:45.094Z,8.57
2018-07-31T09:53:14.100Z,7.60
2018-07-31T09:55:43.083Z,6.77
2018-07-31T09:58:11.961Z,7.07
2018-07-31T10:00:45.965Z,7.23
2018-07-31T10:03:14.845Z,7.30
2018-07-31T10:05:43.716Z,7.47
2018-07-31T10:08:16.760Z,7.57
2018-07-31T10:10:45.628Z,7.60
2018-07-31T10:13:14.459Z,7.57
2018-07-31T10:15:43.334Z,7.50
2018-07-31T10:18:12.258Z,7.93
2018-07-31T10:20:41.020Z,6.93
2018-07-31T10:23:09.881Z,6.70
2018-07-31T10:25:40.363Z,6.77
2018-07-31T10:28:09.711Z,7.13
2018-07-31T10:30:45.033Z,7.60
2018-07-31T10:33:13.793Z,7.53
2018-07-31T10:35:42.615Z,6.40
2018-07-31T10:38:11.468Z,6.90
2018-07-31T10:40:40.539Z,7.17
2018-07-31T10:43:09.378Z,7.00
2018-07-31T10:45:38.239Z,8.07
2018-07-31T10:48:07.223Z,6.90
2018-07-31T10:50:36.186Z,7.13
2018-07-31T10:53:05.132Z,7.15
2018-07-31T10:55:33.968Z,7.33
2018-07-31T10:58:02.856Z,7.50
2018-07-31T11:00:32.997Z,6.55
2018-07-31T11:03:01.782Z,7.33
2018-07-31T11:05:30.572Z,6.92
2018-07-31T11:07:59.425Z,6.70
2018-07-31T11:10:28.274Z,7.72
2018-07-31T11:12:57.053Z,7.05
2018-07-31T11:15:25.899Z,8.10
2018-07-31T11:17:54.709Z,7.22
2018-07-31T11:20:23.581Z,7.20
2018-07-31T11:22:52.601Z,7.00
2018-07-31T11:25:22.849Z,7.55
2018-07-31T11:27:51.704Z,7.30
2018-07-31T11:30:20.664Z,7.00
2018-07-31T11:32:49.550Z,6.95
2018-07-31T11:35:18.389Z,7.37
2018-07-31T11:37:47.201Z,7.22
2018-07-31T11:40:16.086Z,7.40
2018-07-31T11:42:44.871Z,7.15
2018-07-31T11:45:13.643Z,6.83
2018-07-31T11:47:42.471Z,7.70
2018-07-31T11:50:11.338Z,6.65
2018-07-31T11:52:40.196Z,7.05
2018-07-31T11:55:09.067Z,6.95
2018-07-31T11:57:37.859Z,7.25
2018-07-31T12:00:09.267Z,7.10
2018-07-31T12:02:39.479Z,6.97
2018-07-31T12:05:08.596Z,6.70
2018-07-31T12:07:37.435Z,6.78
2018-07-31T12:10:06.768Z,7.30
2018-07-31T12:12:35.606Z,7.10
2018-07-31T12:15:04.927Z,6.55
2018-07-31T12:17:33.717Z,7.12
2018-07-31T12:20:02.531Z,6.65
2018-07-31T12:22:31.304Z,5.92
2018-07-31T12:25:00.055Z,6.85
2018-07-31T12:27:28.827Z,6.00
2018-07-31T12:29:57.663Z,6.45
2018-07-31T12:32:26.466Z,6.40
2018-07-31T12:34:55.236Z,6.08
2018-07-31T12:37:24.106Z,6.08
2018-07-31T12:39:52.881Z,7.08
2018-07-31T12:42:23.192Z,7.03
2018-07-31T12:44:52.121Z,6.87
2018-07-31T12:47:21.054Z,7.20
2018-07-31T12:49:49.942Z,7.03
2018-07-31T12:52:19.012Z,7.03
2018-07-31T12:54:47.804Z,7.08
2018-07-31T12:57:16.604Z,7.50
2018-07-31T12:59:45.448Z,6.65
2018-07-31T13:02:14.364Z,7.37
2018-07-31T13:04:43.153Z,7.53
2018-07-31T13:07:12.004Z,7.70
2018-07-31T13:09:40.873Z,8.35
2018-07-31T13:12:09.794Z,8.25
2018-07-31T13:14:38.714Z,8.25
2018-07-31T13:17:07.550Z,8.20
2018-07-31T13:19:36.335Z,8.35
2018-07-31T13:22:05.247Z,7.87
2018-07-31T13:24:34.033Z,7.87
2018-07-31T13:27:02.844Z,7.53
2018-07-31T13:29:31.809Z,7.67
2018-07-31T13:32:00.663Z,7.55
2018-07-31T13:34:29.420Z,7.70
2018-07-31T13:36:58.267Z,8.20
2018-07-31T13:39:27.074Z,7.80
2018-07-31T13:41:55.846Z,7.67
2018-07-31T13:44:24.688Z,7.72
2018-07-31T13:46:53.455Z,7.78
2018-07-31T13:49:22.302Z,7.78
2018-07-31T14:05:50.416Z,7.55
2018-07-31T14:20:15.739Z,7.50
2018-07-31T14:22:44.557Z,7.87
2018-07-31T14:25:13.384Z,7.87
2018-07-31T14:27:42.266Z,7.78
2018-07-31T14:30:11.112Z,8.18
2018-07-31T14:32:39.892Z,7.67
2018-07-31T14:35:08.818Z,7.90
2018-07-31T14:37:37.710Z,8.85
2018-07-31T14:40:07.965Z,8.55
2018-07-31T14:42:36.933Z,8.85
2018-07-31T14:45:06.032Z,8.53
2018-07-31T14:47:36.150Z,9.03
2018-07-31T14:50:05.288Z,9.03
2018-07-31T14:52:34.051Z,9.48
2018-07-31T14:55:02.883Z,8.20
2018-07-31T14:57:31.662Z,8.58
2018-07-31T15:00:00.527Z,8.53
2018-07-31T15:02:29.363Z,8.80
2018-07-31T15:04:59.777Z,9.85
2018-07-31T15:07:28.569Z,9.30
2018-07-31T15:09:57.528Z,9.53
2018-07-31T15:12:26.364Z,9.73
2018-07-31T15:14:55.157Z,8.80
2018-07-31T15:17:23.936Z,9.13
2018-07-31T15:19:52.784Z,9.20
2018-07-31T15:22:21.707Z,9.30
2018-07-31T15:24:50.497Z,8.93
2018-07-31T15:27:19.524Z,8.87
2018-07-31T15:29:48.404Z,8.27
2018-07-31T15:32:17.180Z,8.83
2018-07-31T15:34:45.977Z,9.37
2018-07-31T15:37:14.860Z,8.17
2018-07-31T15:39:43.657Z,8.77
2018-07-31T15:42:12.477Z,8.30
2018-07-31T15:44:41.314Z,8.00
2018-07-31T15:47:10.187Z,8.30
2018-07-31T15:49:40.433Z,7.90
2018-07-31T15:52:09.202Z,7.90
2018-07-31T15:54:37.971Z,8.25
2018-07-31T15:57:06.810Z,7.97
2018-07-31T15:59:35.700Z,7.85
2018-07-31T16:02:04.553Z,8.30
2018-07-31T16:04:34.778Z,8.08
2018-07-31T16:07:03.560Z,7.47
2018-07-31T16:09:32.365Z,7.58
2018-07-31T16:12:01.209Z,7.25
2018-07-31T16:14:30.053Z,6.87
2018-07-31T16:16:59.080Z,13.13
2018-07-31T16:19:27.867Z,7.03
2018-07-31T16:21:56.692Z,7.53
2018-07-31T16:24:26.816Z,6.28
2018-07-31T16:26:55.641Z,6.53
2018-07-31T16:29:24.429Z,6.08
2018-07-31T16:31:53.540Z,8.20
2018-07-31T16:34:22.317Z,6.72
2018-07-31T16:36:51.151Z,6.22
2018-07-31T16:39:20.021Z,6.53
2018-07-31T16:41:50.143Z,7.40
2018-07-31T16:44:18.915Z,7.33
2018-07-31T16:46:47.707Z,6.47
2018-07-31T16:49:16.524Z,7.00
2018-07-31T16:51:45.312Z,6.72
2018-07-31T16:54:14.182Z,7.62
2018-07-31T16:56:44.316Z,8.75
2018-07-31T16:59:13.096Z,6.92
2018-07-31T17:01:41.968Z,9.58
2018-07-31T17:04:10.795Z,7.85
2018-07-31T17:06:39.597Z,7.10
2018-07-31T17:09:08.662Z,7.70
2018-07-31T17:11:38.913Z,8.70
2018-07-31T17:14:07.788Z,8.87
2018-07-31T17:16:36.564Z,7.90
2018-07-31T17:19:05.444Z,7.87
2018-07-31T17:21:34.296Z,7.33
2018-07-31T17:24:03.153Z,8.53
2018-07-31T17:26:32.036Z,9.10
2018-07-31T17:29:01.201Z,9.27
2018-07-31T17:31:30.000Z,8.27
2018-07-31T17:34:00.172Z,9.00
2018-07-31T17:36:29.059Z,8.73
2018-07-31T17:38:59.202Z,8.23
2018-07-31T17:41:27.999Z,8.67
2018-07-31T17:43:56.992Z,9.23
2018-07-31T17:46:25.797Z,9.27
2018-07-31T17:48:55.048Z,8.73
2018-07-31T17:51:23.928Z,10.60
2018-07-31T17:53:52.710Z,8.97
2018-07-31T17:56:21.483Z,9.17
2018-07-31T17:58:50.502Z,9.97
2018-07-31T18:01:19.301Z,10.13
2018-07-31T18:03:48.083Z,10.23
2018-07-31T18:06:16.904Z,9.97
2018-07-31T18:08:45.675Z,8.73
2018-07-31T18:11:14.452Z,8.77
2018-07-31T18:13:43.300Z,9.00
2018-07-31T18:16:12.100Z,9.10
2018-07-31T18:18:40.876Z,8.87
2018-07-31T18:21:09.719Z,8.50
2018-07-31T18:23:38.867Z,8.37
2018-07-31T18:26:07.640Z,9.67
2018-07-31T18:28:36.512Z,9.37
2018-07-31T18:31:05.334Z,9.00
2018-07-31T18:33:34.179Z,9.93
2018-07-31T18:36:04.527Z,9.63
2018-07-31T18:38:33.488Z,11.17
2018-07-31T18:41:02.328Z,9.07
2018-07-31T18:43:31.152Z,9.20
2018-07-31T18:46:00.039Z,9.13
2018-07-31T18:48:28.871Z,9.50
2018-07-31T18:50:57.770Z,9.13
2018-07-31T18:53:28.130Z,10.50
2018-07-31T18:55:56.916Z,9.87
2018-07-31T18:58:25.872Z,9.30
2018-07-31T19:00:55.227Z,10.10
2018-07-31T19:03:24.274Z,8.87
2018-07-31T19:05:54.327Z,8.60
2018-07-31T19:08:23.267Z,9.07
2018-07-31T19:10:52.106Z,11.37
2018-07-31T19:13:20.981Z,9.63
2018-07-31T19:15:49.787Z,9.70
2018-07-31T19:18:18.580Z,9.67
2018-07-31T19:20:47.610Z,10.50
2018-07-31T19:23:16.419Z,10.03
2018-07-31T19:25:45.295Z,10.87
2018-07-31T19:28:14.307Z,10.87
2018-07-31T19:30:43.182Z,11.27
2018-07-31T19:33:12.067Z,10.53
2018-07-31T19:35:42.332Z,10.67
2018-07-31T19:38:11.133Z,9.50
2018-07-31T19:40:40.021Z,11.13
2018-07-31T19:43:10.373Z,10.70
2018-07-31T19:45:39.318Z,11.23
2018-07-31T19:48:15.071Z,10.87
2018-07-31T19:50:44.011Z,11.00
2018-07-31T19:53:12.945Z,11.43
2018-07-31T19:55:41.803Z,12.80
2018-07-31T19:58:11.875Z,13.53
2018-07-31T20:00:40.716Z,12.80
2018-07-31T20:03:09.588Z,13.10
2018-07-31T20:05:38.479Z,11.63
2018-07-31T20:08:07.356Z,12.93
2018-07-31T20:10:41.770Z,12.70
2018-07-31T20:13:13.190Z,12.40
2018-07-31T20:15:44.325Z,11.27
2018-07-31T20:18:14.448Z,11.77
2018-07-31T20:20:46.911Z,13.27
2018-07-31T20:23:20.230Z,14.03
2018-07-31T20:25:54.275Z,14.50
2018-07-31T20:28:25.939Z,13.83
2018-07-31T20:30:55.464Z,14.33
2018-07-31T20:33:28.767Z,13.60
2018-07-31T20:36:00.746Z,13.23
2018-07-31T20:38:34.378Z,13.97
2018-07-31T20:41:08.075Z,14.03
2018-07-31T20:43:37.686Z,13.73
2018-07-31T20:46:07.814Z,14.73
2018-07-31T20:48:40.386Z,14.00
2018-07-31T20:51:10.265Z,14.40
2018-07-31T20:53:44.107Z,13.67
2018-07-31T20:56:15.061Z,13.43
2018-07-31T20:58:49.535Z,12.00
2018-07-31T21:01:22.230Z,13.10
2018-07-31T21:03:52.862Z,11.33
2018-07-31T21:06:26.290Z,11.23
2018-07-31T21:08:58.816Z,10.90
2018-07-31T21:11:30.651Z,11.30
2018-07-31T21:14:05.858Z,9.63
2018-07-31T21:16:39.992Z,10.07
2018-07-31T21:19:13.006Z,10.27
2018-07-31T21:21:46.240Z,9.07
2018-07-31T21:24:17.399Z,10.13
2018-07-31T21:26:51.205Z,10.07
2018-07-31T21:29:23.161Z,9.83
2018-07-31T21:31:52.735Z,10.07
2018-07-31T21:34:27.041Z,9.83
2018-07-31T21:36:57.242Z,9.67
2018-07-31T21:39:28.214Z,11.60
2018-07-31T21:42:00.719Z,10.90
2018-07-31T21:44:33.295Z,10.37
2018-07-31T21:47:04.808Z,11.03
2018-07-31T21:49:36.715Z,10.53
2018-07-31T21:52:10.473Z,10.47
2018-07-31T21:54:42.732Z,9.40
2018-07-31T21:57:14.407Z,9.40
2018-07-31T21:59:48.969Z,9.93
2018-07-31T22:02:20.602Z,11.20
2018-07-31T22:04:51.758Z,10.80
2018-07-31T22:07:22.875Z,11.60
2018-07-31T22:09:56.007Z,10.83
2018-07-31T22:12:27.277Z,10.60
2018-07-31T22:14:57.193Z,10.27
2018-07-31T22:17:26.838Z,10.20
2018-07-31T22:19:56.970Z,10.07
2018-07-31T22:22:30.076Z,11.00
2018-07-31T22:25:06.010Z,11.33
2018-07-31T22:27:37.939Z,11.10
2018-07-31T22:30:09.862Z,11.37
2018-07-31T22:32:41.218Z,10.70
2018-07-31T22:35:14.499Z,9.80
2018-07-31T22:37:47.755Z,10.83
2018-07-31T22:40:18.683Z,10.43
2018-07-31T22:42:49.810Z,8.77
2018-07-31T22:45:21.323Z,8.43
2018-07-31T22:47:51.880Z,8.70
2018-07-31T22:50:28.109Z,9.43
2018-07-31T22:52:58.293Z,11.37
2018-07-31T22:55:30.718Z,10.57
2018-07-31T22:58:03.604Z,12.17
2018-07-31T23:00:35.769Z,12.97
2018-07-31T23:03:08.436Z,12.13
2018-07-31T23:05:42.321Z,12.53
2018-07-31T23:08:14.859Z,13.00
2018-07-31T23:10:48.511Z,13.60
2018-07-31T23:13:19.574Z,14.90
2018-07-31T23:15:50.692Z,14.93
2018-07-31T23:18:21.654Z,14.87
2018-07-31T23:20:53.821Z,15.80
2018-07-31T23:23:25.661Z,15.93
2018-07-31T23:25:56.324Z,15.80
2018-07-31T23:28:28.385Z,15.57
2018-07-31T23:30:59.513Z,16.00
2018-07-31T23:33:30.290Z,16.03
2018-07-31T23:36:08.495Z,16.50
2018-07-31T23:38:38.881Z,15.73
2018-07-31T23:41:11.948Z,16.67
2018-07-31T23:43:43.840Z,17.57
2018-07-31T23:46:14.775Z,16.33
2018-07-31T23:48:47.419Z,16.00
2018-07-31T23:51:20.783Z,15.70
2018-07-31T23:53:51.364Z,15.93
2018-07-31T23:56:23.315Z,16.33
2018-07-31T23:58:52.663Z,16.77
